createdAt,value
2023-02-13T00:04:51.544Z,8.00
2023-02-13T00:09:55.733Z,7.00
2023-02-13T00:14:59.147Z,7.60
2023-02-13T00:20:02.019Z,7.00
2023-02-13T00:25:07.075Z,8.00
2023-02-13T00:30:10.881Z,7.40
2023-02-13T00:35:13.921Z,6.60
2023-02-13T00:40:18.124Z,8.00
2023-02-13T00:45:20.951Z,7.00
2023-02-13T00:50:23.703Z,7.40
2023-02-13T00:55:27.851Z,6.40
2023-02-13T01:00:30.680Z,6.00
2023-02-13T01:05:33.629Z,7.00
2023-02-13T01:10:38.236Z,6.40
2023-02-13T01:15:41.572Z,7.40
2023-02-13T01:20:44.842Z,7.00
2023-02-13T01:25:51.535Z,6.00
2023-02-13T01:30:55.589Z,6.00
2023-02-13T01:36:00.290Z,7.00
2023-02-13T01:41:05.275Z,6.00
2023-02-13T01:46:08.507Z,7.00
2023-02-13T01:51:13.042Z,6.00
2023-02-13T01:56:20.702Z,6.80
2023-02-13T02:01:23.892Z,6.00
2023-02-13T02:06:29.223Z,6.00
2023-02-13T02:11:37.132Z,6.00
2023-02-13T02:16:41.101Z,5.00
2023-02-13T02:22:00.763Z,6.40
2023-02-13T02:27:33.438Z,5.60
2023-02-13T02:32:46.122Z,5.00
2023-02-13T02:37:57.050Z,5.00
2023-02-13T02:43:09.978Z,5.00
2023-02-13T02:48:36.789Z,5.40
2023-02-13T02:53:40.972Z,6.60
2023-02-13T02:59:03.832Z,5.60
2023-02-13T03:04:34.044Z,5.60
2023-02-13T03:09:56.051Z,5.00
2023-02-13T03:14:58.910Z,6.00
2023-02-13T03:20:28.730Z,5.00
2023-02-13T03:25:35.073Z,4.20
2023-02-13T03:30:44.761Z,5.00
2023-02-13T03:36:13.319Z,6.00
2023-02-13T03:41:20.886Z,5.00
2023-02-13T03:46:23.728Z,5.00
2023-02-13T03:51:29.505Z,3.40
2023-02-13T03:56:50.029Z,3.80
2023-02-13T04:01:58.416Z,4.60
2023-02-13T04:07:03.652Z,5.00
2023-02-13T04:12:10.260Z,3.40
2023-02-13T04:17:15.090Z,3.00
2023-02-13T04:22:19.492Z,5.00
2023-02-13T04:27:22.398Z,4.60
2023-02-13T04:32:25.164Z,4.60
2023-02-13T04:37:29.344Z,4.60
2023-02-13T04:42:32.221Z,3.00
2023-02-13T04:47:35.112Z,4.20
2023-02-13T04:52:39.426Z,5.00
2023-02-13T04:57:42.197Z,3.80
2023-02-13T05:02:45.001Z,4.20
2023-02-13T05:07:49.116Z,5.00
2023-02-13T05:12:52.022Z,5.00
2023-02-13T05:17:54.794Z,3.00
2023-02-13T05:23:17.506Z,3.00
2023-02-13T05:28:37.714Z,4.20
2023-02-13T05:33:40.693Z,3.00
2023-02-13T05:38:44.875Z,3.00
2023-02-13T05:43:47.799Z,2.40
2023-02-13T05:48:50.698Z,2.00
2023-02-13T05:53:54.788Z,2.60
2023-02-13T05:58:57.605Z,2.00
2023-02-13T06:04:03.423Z,2.80
2023-02-13T06:09:08.377Z,2.80
2023-02-13T06:14:12.052Z,2.00
2023-02-13T06:19:14.866Z,3.00
2023-02-13T06:24:19.100Z,2.20
2023-02-13T06:29:22.021Z,2.00
2023-02-13T06:34:24.810Z,2.00
2023-02-13T06:39:28.965Z,2.20
2023-02-13T06:44:31.798Z,2.60
2023-02-13T06:49:34.599Z,2.00
2023-02-13T06:54:47.359Z,2.60
2023-02-13T06:59:50.671Z,3.00
2023-02-13T07:04:53.555Z,2.00
2023-02-13T07:09:57.650Z,2.00
2023-02-13T07:15:00.661Z,2.00
2023-02-13T07:20:04.478Z,1.00
2023-02-13T07:25:09.383Z,2.00
2023-02-13T07:30:13.026Z,2.00
2023-02-13T07:35:15.882Z,1.40
2023-02-13T07:40:20.304Z,2.00
2023-02-13T07:45:23.161Z,2.00
2023-02-13T07:50:26.072Z,1.40
2023-02-13T07:55:30.451Z,2.00
2023-02-13T08:00:33.292Z,1.60
2023-02-13T08:05:36.009Z,1.00
2023-02-13T08:10:58.064Z,2.00
2023-02-13T08:16:00.909Z,1.80
2023-02-13T08:21:03.810Z,1.00
2023-02-13T08:26:07.955Z,1.00
2023-02-13T08:31:12.150Z,1.00
2023-02-13T08:36:14.955Z,1.40
2023-02-13T08:41:20.856Z,1.00
2023-02-13T08:46:23.816Z,1.60
2023-02-13T08:51:26.684Z,1.00
2023-02-13T08:56:30.856Z,1.60
2023-02-13T09:01:33.730Z,1.00
2023-02-13T09:06:36.543Z,1.40
2023-02-13T09:11:40.785Z,3.80
2023-02-13T09:16:43.602Z,6.60
2023-02-13T09:21:46.444Z,7.00
2023-02-13T09:26:50.578Z,5.00
2023-02-13T09:31:53.700Z,4.00
2023-02-13T09:36:56.466Z,4.00
2023-02-13T09:42:00.728Z,2.00
2023-02-13T09:47:06.466Z,2.00
2023-02-13T09:52:09.261Z,2.00
2023-02-13T09:57:17.871Z,2.00
2023-02-13T10:02:36.710Z,2.00
2023-02-13T10:07:42.498Z,1.00
2023-02-13T10:13:04.976Z,1.00
2023-02-13T10:18:11.550Z,1.40
2023-02-13T10:23:19.685Z,2.00
2023-02-13T10:28:30.104Z,1.00
2023-02-13T10:33:35.146Z,1.00
2023-02-13T10:38:51.308Z,1.00
2023-02-13T10:44:03.362Z,1.00
2023-02-13T10:49:21.935Z,1.00
2023-02-13T10:54:35.417Z,0.40
2023-02-13T10:59:55.142Z,1.00
2023-02-13T11:05:00.321Z,1.00
2023-02-13T11:10:07.123Z,1.20
2023-02-13T11:15:26.712Z,1.00
2023-02-13T11:20:32.848Z,1.00
2023-02-13T11:25:35.860Z,1.20
2023-02-13T11:30:40.154Z,2.00
2023-02-13T11:35:42.957Z,1.00
2023-02-13T11:40:47.615Z,1.00
2023-02-13T11:46:06.679Z,0.80
2023-02-13T11:51:09.446Z,1.00
2023-02-13T11:56:13.491Z,1.00
2023-02-13T12:01:28.598Z,1.00
2023-02-13T12:06:31.601Z,1.00
2023-02-13T12:11:38.017Z,1.00
2023-02-13T12:16:43.474Z,1.00
2023-02-13T12:21:56.959Z,1.00
2023-02-13T12:27:01.180Z,6.00
2023-02-13T12:32:11.935Z,10.00
2023-02-13T12:37:20.321Z,7.80
2023-02-13T12:42:32.641Z,6.80
2023-02-13T12:47:38.557Z,5.80
2023-02-13T12:52:47.078Z,5.80
2023-02-13T12:57:57.488Z,4.60
2023-02-13T13:03:19.014Z,5.00
2023-02-13T13:08:34.914Z,4.60
2023-02-13T13:13:44.061Z,4.80
2023-02-13T13:18:54.208Z,4.00
2023-02-13T13:24:00.990Z,4.20
2023-02-13T13:29:06.444Z,4.00
2023-02-13T13:34:23.710Z,3.80
2023-02-13T13:39:33.718Z,34.67
2023-02-13T13:44:44.795Z,61.50
2023-02-13T13:49:52.714Z,78.75
2023-02-13T13:54:56.849Z,98.25
2023-02-13T14:00:18.406Z,110.25
2023-02-13T14:05:27.574Z,122.50
2023-02-13T14:11:00.249Z,102.25
2023-02-13T14:16:03.591Z,85.33
2023-02-13T14:21:07.770Z,87.00
2023-02-13T14:26:19.042Z,87.00
2023-02-13T14:31:23.605Z,79.00
2023-02-13T14:36:32.239Z,77.75
2023-02-13T14:41:58.738Z,75.50
2023-02-13T14:47:04.225Z,70.50
2023-02-13T14:52:10.671Z,66.25
2023-02-13T14:57:16.273Z,65.00
2023-02-13T15:02:22.777Z,66.75
2023-02-13T15:07:27.893Z,65.75
2023-02-13T15:12:31.891Z,59.50
2023-02-13T15:17:38.512Z,60.50
2023-02-13T15:22:43.510Z,63.00
2023-02-13T15:27:46.475Z,60.00
2023-02-13T15:32:55.132Z,55.50
2023-02-13T15:37:59.304Z,58.75
2023-02-13T15:43:02.298Z,59.00
2023-02-13T15:48:05.278Z,56.75
2023-02-13T15:53:13.663Z,58.00
2023-02-13T15:58:16.553Z,55.25
2023-02-13T16:03:19.535Z,56.00
2023-02-13T16:08:31.777Z,56.00
2023-02-13T16:13:34.587Z,53.75
2023-02-13T16:18:37.390Z,55.00
2023-02-13T16:23:41.831Z,55.00
2023-02-13T16:28:46.946Z,52.75
2023-02-13T16:33:49.819Z,53.00
2023-02-13T16:38:54.194Z,53.00
2023-02-13T16:43:57.438Z,51.50
2023-02-13T16:49:06.799Z,51.75
2023-02-13T16:54:19.157Z,50.50
2023-02-13T16:59:33.337Z,49.50
2023-02-13T17:04:39.254Z,49.00
2023-02-13T17:09:43.396Z,49.50
2023-02-13T17:14:46.819Z,49.75
2023-02-13T17:19:49.724Z,50.00
2023-02-13T17:24:53.985Z,45.25
2023-02-13T17:29:56.852Z,48.00
2023-02-13T17:34:59.606Z,43.00
2023-02-13T17:40:03.755Z,44.00
2023-02-13T17:45:06.971Z,43.00
2023-02-13T17:50:10.985Z,42.50
2023-02-13T17:55:18.372Z,41.75
2023-02-13T18:00:21.681Z,41.00
2023-02-13T18:05:24.556Z,39.50
2023-02-13T18:10:29.529Z,39.25
2023-02-13T18:15:32.783Z,37.25
2023-02-13T18:20:35.728Z,38.00
2023-02-13T18:25:39.820Z,36.75
2023-02-13T18:30:43.035Z,35.75
2023-02-13T18:35:45.961Z,35.00
2023-02-13T18:40:50.153Z,35.50
2023-02-13T18:45:53.140Z,35.00
2023-02-13T18:50:56.160Z,34.00
2023-02-13T18:56:04.319Z,34.00
2023-02-13T19:01:08.637Z,32.00
2023-02-13T19:06:12.398Z,33.00
2023-02-13T19:11:17.374Z,30.67
2023-02-13T19:16:20.369Z,33.00
2023-02-13T19:21:24.112Z,31.00
2023-02-13T19:26:28.266Z,30.67
2023-02-13T19:31:32.954Z,30.33
2023-02-13T19:36:35.856Z,30.00
2023-02-13T19:41:40.849Z,30.00
2023-02-13T19:46:43.719Z,30.00
2023-02-13T19:51:47.271Z,30.00
2023-02-13T19:56:51.452Z,29.33
2023-02-13T20:01:54.428Z,30.00
2023-02-13T20:06:58.328Z,29.00
2023-02-13T20:12:02.522Z,28.33
2023-02-13T20:17:06.209Z,27.67
2023-02-13T20:22:08.937Z,29.00
2023-02-13T20:27:13.253Z,27.00
2023-02-13T20:32:16.329Z,27.00
2023-02-13T20:37:19.219Z,27.33
2023-02-13T20:42:23.463Z,26.00
2023-02-13T20:47:26.520Z,27.67
2023-02-13T20:52:29.298Z,27.00
2023-02-13T20:57:35.325Z,26.33
2023-02-13T21:02:38.296Z,27.00
2023-02-13T21:07:43.536Z,27.00
2023-02-13T21:12:47.747Z,26.33
2023-02-13T21:17:50.710Z,26.67
2023-02-13T21:22:53.641Z,26.67
2023-02-13T21:27:57.793Z,26.25
2023-02-13T21:33:00.576Z,26.00
2023-02-13T21:38:03.439Z,27.33
2023-02-13T21:43:07.630Z,25.00
2023-02-13T21:48:10.594Z,25.00
2023-02-13T21:53:13.587Z,25.00
2023-02-13T21:58:17.788Z,23.50
2023-02-13T22:03:20.745Z,25.00
2023-02-13T22:08:23.564Z,24.50
2023-02-13T22:13:27.816Z,25.00
2023-02-13T22:18:31.685Z,23.50
2023-02-13T22:23:36.655Z,25.00
2023-02-13T22:28:40.995Z,24.50
2023-02-13T22:33:47.538Z,22.25
2023-02-13T22:38:52.949Z,23.75
2023-02-13T22:43:57.251Z,22.00
2023-02-13T22:49:00.043Z,21.75
2023-02-13T22:54:02.981Z,22.50
2023-02-13T22:59:07.239Z,22.00
2023-02-13T23:04:10.103Z,21.00
2023-02-13T23:09:12.938Z,20.50
2023-02-13T23:14:17.068Z,22.50
2023-02-13T23:19:20.452Z,21.00
2023-02-13T23:24:23.344Z,22.00
2023-02-13T23:29:27.604Z,21.00
2023-02-13T23:34:30.410Z,20.50
2023-02-13T23:39:33.177Z,19.75
2023-02-13T23:44:37.430Z,21.00
2023-02-13T23:49:40.251Z,20.00
2023-02-13T23:54:43.495Z,20.25
2023-02-13T23:59:47.601Z,19.25
